Norwegian Wind — C6LG6 — position and weather

sailwx.info

Track history (hours):
 
Tides and Currents Weather Stations Pressure Air Temp Water Temp Dewpoint Dewpoint Depression Visibility Wind Speed Wind Dir Waves Ship Positions

Norwegian Wind

Operator: Norwegian Cruise Line

Last reported at 2019-Jun-16 18:00 UTC. Time now 2019-Jun-17 19:27 UTC.
Position N 24°36' E 123°30'.

Type: Passenger vessel. MMSI: 308273000.

Wind from 140 at 16 knots

Barometer 1007.1 mb
Air temperature 27.0 ° C
Visibility: greater than 10.8 NM
Dewpoint 24.3 ° C

Date/timePositionNaut miles runAvg speedWind from/ knotsBaromVisibWave heightAir tempDewpointWater temp
2019-Jun-16 18:00N 24°36' E 123°30'28 9.3 140 / 161007.110.8 27.024.3
2019-Jun-16 15:00N 24°42' E 123°00'3712.4 100 / 161008.310.8 27.024.3
2019-Jun-16 12:00N 25°00' E 122°24'1912.2 090 / 161006.310.8 27.024.3
2019-Jun-16 10:28N 25°08' E 122°05'913.5
2019-Jun-16 09:48N 25°11' E 121°56'412.4
2019-Jun-16 09:30N 25°12' E 121°52'612.2
2019-Jun-16 09:00N 25°11' E 121°45'3 6.0
2019-Jun-16 08:30N 25°08' E 121°45'0 0.0
2019-Jun-16 08:00N 25°08' E 121°45'0 0.0
2019-Jun-16 07:30N 25°08' E 121°45'0 0.0
2019-Jun-16 06:59N 25°08' E 121°45'0 0.0
2019-Jun-16 06:28N 25°08' E 121°45'0 0.0
2019-Jun-16 05:58N 25°08' E 121°45'0 0.0
2019-Jun-16 05:25N 25°08' E 121°45'0 0.0
2019-Jun-16 04:58N 25°08' E 121°45'0 0.0
2019-Jun-16 04:28N 25°08' E 121°45'0 0.0
2019-Jun-16 04:00N 25°08' E 121°45'0 0.0
2019-Jun-16 03:29N 25°08' E 121°45'0 0.0
2019-Jun-16 02:59N 25°08' E 121°45'0 0.0
2019-Jun-16 02:29N 25°08' E 121°45'1 1.7
2019-Jun-16 02:00N 25°09' E 121°45'611.9
2019-Jun-16 01:31N 25°14' E 121°44'713.0
2019-Jun-16 00:59N 25°21' E 121°43'1211.5
2019-Jun-15 23:56N 25°28' E 121°33'1 1.3
2019-Jun-15 23:30N 25°28' E 121°33'2 3.4
2019-Jun-15 23:00N 25°27' E 121°34'2 3.4
2019-Jun-15 22:24N 25°25' E 121°36'3 5.7
2019-Jun-15 21:48N 25°22' E 121°36'1 3.9
2019-Jun-15 21:26N 25°22' E 121°37'2 3.4
2019-Jun-15 20:51N 25°22' E 121°39'2 2.9
2019-Jun-15 20:20N 25°23' E 121°41'1 2.5
2019-Jun-15 19:56N 25°23' E 121°42'2 2.0
2019-Jun-15 19:08N 25°24' E 121°44'0 1.9
2019-Jun-15 18:58N 25°24' E 121°44'1 1.5
2019-Jun-15 18:18N 25°25' E 121°44'724.2
2019-Jun-15 18:00N 25°18' E 121°42'5102.7 100 / 211004.310.8 25.022.2
2019-Jun-15 17:57N 25°22' E 121°43'2 3.6
2019-Jun-15 17:26N 25°22' E 121°45'1 1.7
2019-Jun-15 16:57N 25°22' E 121°45'1 1.6
2019-Jun-15 16:09N 25°24' E 121°44'1 1.3
2019-Jun-15 15:45N 25°24' E 121°44'1 1.8
2019-Jun-15 15:27N 25°25' E 121°44'5 9.2
2019-Jun-15 14:56N 25°25' E 121°39'5 9.4
2019-Jun-15 14:25N 25°24' E 121°33'2 5.6
2019-Jun-15 13:59N 25°22' E 121°32'1 2.3
2019-Jun-15 13:28N 25°22' E 121°34'2 2.6
2019-Jun-15 12:42N 25°23' E 121°36'1 3.0
2019-Jun-15 12:28N 25°23' E 121°36'510.0
2019-Jun-15 12:00N 25°18' E 121°36'622.3 090 / 191005.610.8 25.020.7
2019-Jun-15 11:44N 25°23' E 121°39'1 3.4
2019-Jun-15 11:19N 25°23' E 121°41'2 3.4
2019-Jun-15 10:48N 25°23' E 121°43'1 3.1
2019-Jun-15 10:28N 25°23' E 121°44'4 7.7
2019-Jun-15 10:00N 25°27' E 121°44'5 5.8
2019-Jun-15 09:11N 25°24' E 121°40'616.9
2019-Jun-15 08:51N 25°22' E 121°45'612.5
2019-Jun-15 08:20N 25°17' E 121°50'1 2.6
2019-Jun-15 08:00N 25°16' E 121°50'5 9.2
2019-Jun-15 07:30N 25°12' E 121°53'713.7
2019-Jun-15 06:58N 25°09' E 121°60'4111.7
2019-Jun-15 03:28N 24°43' E 122°35'9 1.2
2019-Jun-14 19:46N 24°38' E 122°42'3 9.4
2019-Jun-14 19:26N 24°40' E 122°40'4 9.4
2019-Jun-14 18:58N 24°43' E 122°37'5 9.2
2019-Jun-14 18:25N 24°47' E 122°33'62148.4
2019-Jun-14 18:00N 24°48' E 121°24'56126.2 360 / 191002.610.8 25.020.7
2019-Jun-14 17:33N 24°51' E 122°25'110.0
2019-Jun-14 17:27N 24°52' E 122°24'510.6
2019-Jun-14 17:00N 24°55' E 122°20'1811.1
2019-Jun-14 15:24N 25°08' E 122°07'1015.7
2019-Jun-14 14:45N 25°11' E 121°56'415.7
2019-Jun-14 14:30N 25°12' E 121°52'612.8
2019-Jun-14 14:00N 25°10' E 121°45'2 4.4
2019-Jun-14 13:30N 25°08' E 121°45'0 0.0
2019-Jun-14 12:59N 25°08' E 121°45'0 0.0
2019-Jun-14 12:23N 25°08' E 121°45'3 8.3
2019-Jun-14 12:00N 25°06' E 121°42'3314.0 230 / 101002.110.8 25.020.7
2019-Jun-14 11:59N 25°08' E 121°45'0 0.0
2019-Jun-14 11:29N 25°08' E 121°45'0 0.0
2019-Jun-14 10:59N 25°08' E 121°45'0 0.0
2019-Jun-14 10:05N 25°08' E 121°45'0 0.0
2019-Jun-14 09:47N 25°08' E 121°45'0 0.0
2019-Jun-14 09:29N 25°08' E 121°45'0 0.0
2019-Jun-14 08:59N 25°08' E 121°45'0 0.0
2019-Jun-14 08:29N 25°08' E 121°45'0 0.0
2019-Jun-14 07:59N 25°08' E 121°45'0 0.0
2019-Jun-14 07:29N 25°08' E 121°45'0 0.7
2019-Jun-14 07:01N 25°08' E 121°45'510.2
2019-Jun-14 06:30N 25°13' E 121°45'612.5
2019-Jun-14 06:00N 25°15' E 121°52'811.5
2019-Jun-14 05:16N 25°16' E 122°01'2 5.0
2019-Jun-14 04:55N 25°14' E 122°01'5 9.4
2019-Jun-14 04:25N 25°14' E 122°06'3 7.3
2019-Jun-14 03:59N 25°12' E 122°09'3 4.0
2019-Jun-14 03:17N 25°09' E 122°08'1 3.1
2019-Jun-14 02:53N 25°10' E 122°08'1 2.7
2019-Jun-14 02:30N 25°11' E 122°08'1 2.8
2019-Jun-14 01:59N 25°13' E 122°08'2 3.1
2019-Jun-14 01:30N 25°14' E 122°06'2 3.3
2019-Jun-14 00:54N 25°15' E 122°05'2 3.0
2019-Jun-14 00:13N 25°16' E 122°03'1 2.5
2019-Jun-13 23:58N 25°17' E 122°03'4 8.1
2019-Jun-13 23:25N 25°14' E 122°07'510.3
2019-Jun-13 22:56N 25°12' E 122°12'510.6
2019-Jun-13 22:25N 25°10' E 122°17'62 2.4
2019-Jun-12 21:00N 24°42' E 123°18'28 9.3 090 / 101001.110.8 26.023.225.1
2019-Jun-12 18:00N 24°48' E 122°48'2716.1 060 / 101002.2 5.4 25.019.1
2019-Jun-12 16:18N 25°03' E 122°23'616.4
2019-Jun-12 15:58N 25°05' E 122°17'1116.7
2019-Jun-12 15:19N 25°09' E 122°06'517.3
2019-Jun-12 15:00N 25°10' E 122°00'916.8
2019-Jun-12 14:28N 25°12' E 121°51'511.3
2019-Jun-12 14:00N 25°10' E 121°45'2 4.6
2019-Jun-12 13:30N 25°08' E 121°45'0 0.0
2019-Jun-12 13:00N 25°08' E 121°45'0 0.0
2019-Jun-12 12:30N 25°08' E 121°45'3 6.2
2019-Jun-12 12:00N 25°06' E 121°42'397.3 040 / 101005.4 5.4 23.020.1
2019-Jun-12 11:58N 25°08' E 121°45'0 0.0
2019-Jun-12 10:59N 25°08' E 121°45'0 0.0
2019-Jun-12 10:26N 25°08' E 121°45'0 0.0
2019-Jun-12 09:48N 25°08' E 121°45'0 0.0
2019-Jun-12 09:28N 25°08' E 121°45'0 0.0
2019-Jun-12 08:58N 25°08' E 121°45'0 0.0
2019-Jun-12 08:28N 25°08' E 121°45'0 0.0
2019-Jun-12 07:58N 25°08' E 121°45'0 0.1
2019-Jun-12 07:30N 25°08' E 121°45'1 2.8
2019-Jun-12 07:00N 25°09' E 121°45'510.8
2019-Jun-12 06:31N 25°15' E 121°45'1016.1
2019-Jun-12 05:53N 25°16' E 121°56'616.2
2019-Jun-12 05:29N 25°17' E 122°03'816.5
2019-Jun-12 04:58N 25°18' E 122°13'815.8
2019-Jun-12 04:29N 25°19' E 122°21'815.4
2019-Jun-12 03:59N 25°21' E 122°30'1211.8
2019-Jun-12 03:00N 25°18' E 122°42'13014.5 040 / 161005.610.8 27.024.3
2019-Jun-11 18:00N 25°24' E 125°06'7926.5 030 / 161002.6 5.4 25.020.7
2019-Jun-11 15:00N 25°48' E 126°30'64 5.3 010 / 101004.610.8 25.022.2
2019-Jun-11 03:00N 26°12' E 127°36'49 5.5 090 / 141000.6 5.4 25.022.2
2019-Jun-10 18:00N 25°48' E 126°48'3210.8 160 / 101000.9 5.4 26.023.2
2019-Jun-10 15:00N 25°30' E 126°18'120 5.7 1002.210.8 27.024.3
2019-Jun-09 18:00N 24°54' E 124°12'4414.6 180 / 23999.210.8 28.025.3
2019-Jun-09 15:00N 25°00' E 123°24'4414.6 180 / 251003.110.8 29.027.7
2019-Jun-09 12:00N 25°06' E 122°36'1516.9 140 / 161001.110.8 28.028.0
2019-Jun-09 11:05N 25°10' E 122°20'414.7
2019-Jun-09 10:47N 25°11' E 122°15'815.9
2019-Jun-09 10:16N 25°11' E 122°06'516.4
2019-Jun-09 09:57N 25°12' E 122°00'916.2
2019-Jun-09 09:24N 25°12' E 121°50'512.2
2019-Jun-09 08:58N 25°10' E 121°45'2 3.8
2019-Jun-09 08:30N 25°08' E 121°45'0 0.0
2019-Jun-09 07:51N 25°08' E 121°45'0 0.0
2019-Jun-09 07:25N 25°08' E 121°45'0 0.0
2019-Jun-09 07:00N 25°08' E 121°45'0 0.0
2019-Jun-09 06:29N 25°08' E 121°45'0 0.0
2019-Jun-09 05:56N 25°08' E 121°45'0 0.0
2019-Jun-09 05:25N 25°08' E 121°45'0 0.0
2019-Jun-09 04:55N 25°08' E 121°45'0 0.0
2019-Jun-09 03:38N 25°08' E 121°45'0 0.0
2019-Jun-09 02:50N 25°08' E 121°45'0 0.9
2019-Jun-09 02:27N 25°08' E 121°45'1 3.1
2019-Jun-09 02:00N 25°10' E 121°45'713.3
2019-Jun-09 01:30N 25°16' E 121°46'714.5
2019-Jun-09 00:59N 25°23' E 121°50'611.5
2019-Jun-09 00:26N 25°26' E 121°44'8 7.2
2019-Jun-08 23:21N 25°19' E 121°48'1 2.2
2019-Jun-08 22:56N 25°19' E 121°47'1 2.0
2019-Jun-08 22:27N 25°20' E 121°46'1 2.0
2019-Jun-08 21:54N 25°20' E 121°45'1 2.3
2019-Jun-08 21:29N 25°21' E 121°44'1 2.3
2019-Jun-08 20:58N 25°21' E 121°43'1 1.9
2019-Jun-08 20:17N 25°22' E 121°42'1 2.1
2019-Jun-08 19:56N 25°22' E 121°41'1 2.1
2019-Jun-08 19:30N 25°22' E 121°40'1 1.9
2019-Jun-08 18:59N 25°23' E 121°40'1 1.1
2019-Jun-08 18:28N 25°24' E 121°39'3 6.1
2019-Jun-08 18:00N 25°24' E 121°36'340.2 240 / 61002.310.8 26.024.6
2019-Jun-08 17:55N 25°24' E 121°39'0 0.8
2019-Jun-08 17:29N 25°24' E 121°40'1 1.2
2019-Jun-08 16:59N 25°24' E 121°40'1 1.7
2019-Jun-08 16:29N 25°23' E 121°41'1 1.6
2019-Jun-08 16:00N 25°23' E 121°42'1 1.9
2019-Jun-08 15:27N 25°23' E 121°43'1 1.9
2019-Jun-08 14:51N 25°23' E 121°44'1 1.8
2019-Jun-08 14:19N 25°23' E 121°45'0 1.5
2019-Jun-08 14:01N 25°23' E 121°46'1 1.1
2019-Jun-08 13:19N 25°23' E 121°47'0 0.8
2019-Jun-08 12:55N 25°24' E 121°47'0 1.0
2019-Jun-08 12:27N 25°24' E 121°47'1 1.5
2019-Jun-08 11:49N 25°25' E 121°47'3 6.9
2019-Jun-08 11:20N 25°22' E 121°49'2 5.5
2019-Jun-08 10:56N 25°21' E 121°51'1 1.9
2019-Jun-08 10:27N 25°22' E 121°50'1 2.8
2019-Jun-08 09:56N 25°23' E 121°49'2 3.8
2019-Jun-08 09:26N 25°24' E 121°47'3 4.6
2019-Jun-08 08:45N 25°21' E 121°49'3 8.8
2019-Jun-08 08:27N 25°19' E 121°51'710.1
2019-Jun-08 07:46N 25°17' E 121°58'3 9.5
2019-Jun-08 07:29N 25°15' E 122°00'5 9.4
2019-Jun-08 06:57N 25°10' E 122°03'3210.9
2019-Jun-08 04:03N 24°49' E 122°28'110.2
2019-Jun-08 03:54N 24°48' E 122°30'510.3
2019-Jun-08 03:28N 24°45' E 122°33'4 7.9
2019-Jun-08 03:00N 24°42' E 122°36'8 1.1 180 / 161006.110.8 30.027.4
2019-Jun-07 20:06N 24°37' E 122°43'1 8.9
2019-Jun-07 20:00N 24°38' E 122°42'611.1
2019-Jun-07 19:27N 24°42' E 122°37'510.9
2019-Jun-07 18:57N 24°45' E 122°32'510.9
2019-Jun-07 18:28N 24°49' E 122°28'3 7.2
2019-Jun-07 18:00N 24°48' E 122°24'4138.9 190 / 191006.110.8 28.026.7
2019-Jun-07 17:58N 24°52' E 122°23'611.1
2019-Jun-07 17:23N 24°56' E 122°18'1410.7
2019-Jun-07 16:07N 25°07' E 122°09'210.2
2019-Jun-07 15:57N 25°08' E 122°07'610.7
2019-Jun-07 15:26N 25°09' E 122°01'4 9.8
2019-Jun-07 15:00N 25°10' E 121°57'510.9
2019-Jun-07 14:30N 25°11' E 121°51'5 9.7
2019-Jun-07 13:59N 25°11' E 121°45'3 6.3
2019-Jun-07 13:29N 25°08' E 121°45'0 0.0
2019-Jun-07 12:55N 25°08' E 121°45'0 0.0
2019-Jun-07 12:30N 25°08' E 121°45'3 6.0
2019-Jun-07 12:00N 25°06' E 121°42'394.0 170 / 61007.510.8 26.024.6
2019-Jun-07 11:58N 25°08' E 121°45'0 0.0
2019-Jun-07 11:30N 25°08' E 121°45'0 0.0
2019-Jun-07 10:46N 25°08' E 121°45'0 0.0
2019-Jun-07 10:19N 25°08' E 121°45'0 0.0
2019-Jun-07 09:54N 25°08' E 121°45'0 0.0
2019-Jun-07 09:30N 25°08' E 121°45'0 0.0
2019-Jun-07 08:54N 25°08' E 121°45'0 0.0
2019-Jun-07 08:24N 25°08' E 121°45'0 0.0
2019-Jun-07 07:57N 25°08' E 121°45'0 0.6
2019-Jun-07 07:18N 25°08' E 121°45'1 3.7
2019-Jun-07 06:56N 25°10' E 121°45'712.1
2019-Jun-07 06:22N 25°16' E 121°48'614.8
2019-Jun-07 05:57N 25°19' E 121°54'612.2
2019-Jun-07 05:27N 25°25' E 121°52'5 7.0
2019-Jun-07 04:46N 25°20' E 121°52'0 1.6
2019-Jun-07 04:30N 25°20' E 121°52'1 1.9
2019-Jun-07 03:59N 25°19' E 121°53'1 2.0
2019-Jun-07 03:28N 25°19' E 121°54'714.4
2019-Jun-07 03:00N 25°12' E 121°54'6128.9 090 / 101008.110.8 30.027.4
2019-Jun-07 02:57N 25°18' E 121°55'1 2.0
2019-Jun-07 02:29N 25°18' E 121°56'2 1.9
2019-Jun-07 01:33N 25°17' E 121°58'0 2.0
2019-Jun-07 01:23N 25°17' E 121°58'1 1.2
2019-Jun-07 00:37N 25°17' E 121°59'0 1.3
2019-Jun-07 00:26N 25°17' E 121°59'3 7.0
2019-Jun-07 00:00N 25°15' E 122°02'611.6
2019-Jun-06 23:27N 25°11' E 122°08'510.6
2019-Jun-06 23:00N 25°10' E 122°12'48 9.6
2019-Jun-06 18:00N 24°48' E 123°00'   180 / 251008.110.8 29.026.3
Track history (hours):
 
Tides and Currents Weather Stations Pressure Air Temp Water Temp Dewpoint Dewpoint Depression Visibility Wind Speed Wind Dir Waves Ship Positions

Norwegian Wind

Operator: Norwegian Cruise Line

Last reported at 2019-Jun-16 18:00 UTC. Time now 2019-Jun-17 19:27 UTC.
Position N 24°36' E 123°30'.

Type: Passenger vessel. MMSI: 308273000.

Wind from 140 at 16 knots

Barometer 1007.1 mb
Air temperature 27.0 ° C
Visibility: greater than 10.8 NM
Dewpoint 24.3 ° C

Date/timePositionNaut miles runAvg speedWind from/ knotsBaromVisibWave heightAir tempDewpointWater temp
2019-Jun-16 18:00N 24°36' E 123°30'28 9.3 140 / 161007.110.8 27.024.3
2019-Jun-16 15:00N 24°42' E 123°00'3712.4 100 / 161008.310.8 27.024.3
2019-Jun-16 12:00N 25°00' E 122°24'1912.2 090 / 161006.310.8 27.024.3
2019-Jun-16 10:28N 25°08' E 122°05'913.5
2019-Jun-16 09:48N 25°11' E 121°56'412.4
2019-Jun-16 09:30N 25°12' E 121°52'612.2
2019-Jun-16 09:00N 25°11' E 121°45'3 6.0
2019-Jun-16 08:30N 25°08' E 121°45'0 0.0
2019-Jun-16 08:00N 25°08' E 121°45'0 0.0
2019-Jun-16 07:30N 25°08' E 121°45'0 0.0
2019-Jun-16 06:59N 25°08' E 121°45'0 0.0
2019-Jun-16 06:28N 25°08' E 121°45'0 0.0
2019-Jun-16 05:58N 25°08' E 121°45'0 0.0
2019-Jun-16 05:25N 25°08' E 121°45'0 0.0
2019-Jun-16 04:58N 25°08' E 121°45'0 0.0
2019-Jun-16 04:28N 25°08' E 121°45'0 0.0
2019-Jun-16 04:00N 25°08' E 121°45'0 0.0
2019-Jun-16 03:29N 25°08' E 121°45'0 0.0
2019-Jun-16 02:59N 25°08' E 121°45'0 0.0
2019-Jun-16 02:29N 25°08' E 121°45'1 1.7
2019-Jun-16 02:00N 25°09' E 121°45'611.9
2019-Jun-16 01:31N 25°14' E 121°44'713.0
2019-Jun-16 00:59N 25°21' E 121°43'1211.5
2019-Jun-15 23:56N 25°28' E 121°33'1 1.3
2019-Jun-15 23:30N 25°28' E 121°33'2 3.4
2019-Jun-15 23:00N 25°27' E 121°34'2 3.4
2019-Jun-15 22:24N 25°25' E 121°36'3 5.7
2019-Jun-15 21:48N 25°22' E 121°36'1 3.9
2019-Jun-15 21:26N 25°22' E 121°37'2 3.4
2019-Jun-15 20:51N 25°22' E 121°39'2 2.9
2019-Jun-15 20:20N 25°23' E 121°41'1 2.5
2019-Jun-15 19:56N 25°23' E 121°42'2 2.0
2019-Jun-15 19:08N 25°24' E 121°44'0 1.9
2019-Jun-15 18:58N 25°24' E 121°44'1 1.5
2019-Jun-15 18:18N 25°25' E 121°44'724.2
2019-Jun-15 18:00N 25°18' E 121°42'5102.7 100 / 211004.310.8 25.022.2
2019-Jun-15 17:57N 25°22' E 121°43'2 3.6
2019-Jun-15 17:26N 25°22' E 121°45'1 1.7
2019-Jun-15 16:57N 25°22' E 121°45'1 1.6
2019-Jun-15 16:09N 25°24' E 121°44'1 1.3
2019-Jun-15 15:45N 25°24' E 121°44'1 1.8
2019-Jun-15 15:27N 25°25' E 121°44'5 9.2
2019-Jun-15 14:56N 25°25' E 121°39'5 9.4
2019-Jun-15 14:25N 25°24' E 121°33'2 5.6
2019-Jun-15 13:59N 25°22' E 121°32'1 2.3
2019-Jun-15 13:28N 25°22' E 121°34'2 2.6
2019-Jun-15 12:42N 25°23' E 121°36'1 3.0
2019-Jun-15 12:28N 25°23' E 121°36'510.0
2019-Jun-15 12:00N 25°18' E 121°36'622.3 090 / 191005.610.8 25.020.7
2019-Jun-15 11:44N 25°23' E 121°39'1 3.4
2019-Jun-15 11:19N 25°23' E 121°41'2 3.4
2019-Jun-15 10:48N 25°23' E 121°43'1 3.1
2019-Jun-15 10:28N 25°23' E 121°44'4 7.7
2019-Jun-15 10:00N 25°27' E 121°44'5 5.8
2019-Jun-15 09:11N 25°24' E 121°40'616.9
2019-Jun-15 08:51N 25°22' E 121°45'612.5
2019-Jun-15 08:20N 25°17' E 121°50'1 2.6
2019-Jun-15 08:00N 25°16' E 121°50'5 9.2
2019-Jun-15 07:30N 25°12' E 121°53'713.7
2019-Jun-15 06:58N 25°09' E 121°60'4111.7
2019-Jun-15 03:28N 24°43' E 122°35'9 1.2
2019-Jun-14 19:46N 24°38' E 122°42'3 9.4
2019-Jun-14 19:26N 24°40' E 122°40'4 9.4
2019-Jun-14 18:58N 24°43' E 122°37'5 9.2
2019-Jun-14 18:25N 24°47' E 122°33'62148.4
2019-Jun-14 18:00N 24°48' E 121°24'56126.2 360 / 191002.610.8 25.020.7
2019-Jun-14 17:33N 24°51' E 122°25'110.0
2019-Jun-14 17:27N 24°52' E 122°24'510.6
2019-Jun-14 17:00N 24°55' E 122°20'1811.1
2019-Jun-14 15:24N 25°08' E 122°07'1015.7
2019-Jun-14 14:45N 25°11' E 121°56'415.7
2019-Jun-14 14:30N 25°12' E 121°52'612.8
2019-Jun-14 14:00N 25°10' E 121°45'2 4.4
2019-Jun-14 13:30N 25°08' E 121°45'0 0.0
2019-Jun-14 12:59N 25°08' E 121°45'0 0.0
2019-Jun-14 12:23N 25°08' E 121°45'3 8.3
2019-Jun-14 12:00N 25°06' E 121°42'3314.0 230 / 101002.110.8 25.020.7
2019-Jun-14 11:59N 25°08' E 121°45'0 0.0
2019-Jun-14 11:29N 25°08' E 121°45'0 0.0
2019-Jun-14 10:59N 25°08' E 121°45'0 0.0
2019-Jun-14 10:05N 25°08' E 121°45'0 0.0
2019-Jun-14 09:47N 25°08' E 121°45'0 0.0
2019-Jun-14 09:29N 25°08' E 121°45'0 0.0
2019-Jun-14 08:59N 25°08' E 121°45'0 0.0
2019-Jun-14 08:29N 25°08' E 121°45'0 0.0
2019-Jun-14 07:59N 25°08' E 121°45'0 0.0
2019-Jun-14 07:29N 25°08' E 121°45'0 0.7
2019-Jun-14 07:01N 25°08' E 121°45'510.2
2019-Jun-14 06:30N 25°13' E 121°45'612.5
2019-Jun-14 06:00N 25°15' E 121°52'811.5
2019-Jun-14 05:16N 25°16' E 122°01'2 5.0
2019-Jun-14 04:55N 25°14' E 122°01'5 9.4
2019-Jun-14 04:25N 25°14' E 122°06'3 7.3
2019-Jun-14 03:59N 25°12' E 122°09'3 4.0
2019-Jun-14 03:17N 25°09' E 122°08'1 3.1
2019-Jun-14 02:53N 25°10' E 122°08'1 2.7
2019-Jun-14 02:30N 25°11' E 122°08'1 2.8
2019-Jun-14 01:59N 25°13' E 122°08'2 3.1
2019-Jun-14 01:30N 25°14' E 122°06'2 3.3
2019-Jun-14 00:54N 25°15' E 122°05'2 3.0
2019-Jun-14 00:13N 25°16' E 122°03'1 2.5
2019-Jun-13 23:58N 25°17' E 122°03'4 8.1
2019-Jun-13 23:25N 25°14' E 122°07'510.3
2019-Jun-13 22:56N 25°12' E 122°12'510.6
2019-Jun-13 22:25N 25°10' E 122°17'62 2.4
2019-Jun-12 21:00N 24°42' E 123°18'28 9.3 090 / 101001.110.8 26.023.225.1
2019-Jun-12 18:00N 24°48' E 122°48'2716.1 060 / 101002.2 5.4 25.019.1
2019-Jun-12 16:18N 25°03' E 122°23'616.4
2019-Jun-12 15:58N 25°05' E 122°17'1116.7
2019-Jun-12 15:19N 25°09' E 122°06'517.3
2019-Jun-12 15:00N 25°10' E 122°00'916.8
2019-Jun-12 14:28N 25°12' E 121°51'511.3
2019-Jun-12 14:00N 25°10' E 121°45'2 4.6
2019-Jun-12 13:30N 25°08' E 121°45'0 0.0
2019-Jun-12 13:00N 25°08' E 121°45'0 0.0
2019-Jun-12 12:30N 25°08' E 121°45'3 6.2
2019-Jun-12 12:00N 25°06' E 121°42'397.3 040 / 101005.4 5.4 23.020.1
2019-Jun-12 11:58N 25°08' E 121°45'0 0.0
2019-Jun-12 10:59N 25°08' E 121°45'0 0.0
2019-Jun-12 10:26N 25°08' E 121°45'0 0.0
2019-Jun-12 09:48N 25°08' E 121°45'0 0.0
2019-Jun-12 09:28N 25°08' E 121°45'0 0.0
2019-Jun-12 08:58N 25°08' E 121°45'0 0.0
2019-Jun-12 08:28N 25°08' E 121°45'0 0.0
2019-Jun-12 07:58N 25°08' E 121°45'0 0.1
2019-Jun-12 07:30N 25°08' E 121°45'1 2.8
2019-Jun-12 07:00N 25°09' E 121°45'510.8
2019-Jun-12 06:31N 25°15' E 121°45'1016.1
2019-Jun-12 05:53N 25°16' E 121°56'616.2
2019-Jun-12 05:29N 25°17' E 122°03'816.5
2019-Jun-12 04:58N 25°18' E 122°13'815.8
2019-Jun-12 04:29N 25°19' E 122°21'815.4
2019-Jun-12 03:59N 25°21' E 122°30'1211.8
2019-Jun-12 03:00N 25°18' E 122°42'13014.5 040 / 161005.610.8 27.024.3
2019-Jun-11 18:00N 25°24' E 125°06'7926.5 030 / 161002.6 5.4 25.020.7
2019-Jun-11 15:00N 25°48' E 126°30'64 5.3 010 / 101004.610.8 25.022.2
2019-Jun-11 03:00N 26°12' E 127°36'49 5.5 090 / 141000.6 5.4 25.022.2
2019-Jun-10 18:00N 25°48' E 126°48'3210.8 160 / 101000.9 5.4 26.023.2
2019-Jun-10 15:00N 25°30' E 126°18'120 5.7 1002.210.8 27.024.3
2019-Jun-09 18:00N 24°54' E 124°12'4414.6 180 / 23999.210.8 28.025.3
2019-Jun-09 15:00N 25°00' E 123°24'4414.6 180 / 251003.110.8 29.027.7
2019-Jun-09 12:00N 25°06' E 122°36'1516.9 140 / 161001.110.8 28.028.0
2019-Jun-09 11:05N 25°10' E 122°20'414.7
2019-Jun-09 10:47N 25°11' E 122°15'815.9
2019-Jun-09 10:16N 25°11' E 122°06'516.4
2019-Jun-09 09:57N 25°12' E 122°00'916.2
2019-Jun-09 09:24N 25°12' E 121°50'512.2
2019-Jun-09 08:58N 25°10' E 121°45'2 3.8
2019-Jun-09 08:30N 25°08' E 121°45'0 0.0
2019-Jun-09 07:51N 25°08' E 121°45'0 0.0
2019-Jun-09 07:25N 25°08' E 121°45'0 0.0
2019-Jun-09 07:00N 25°08' E 121°45'0 0.0
2019-Jun-09 06:29N 25°08' E 121°45'0 0.0
2019-Jun-09 05:56N 25°08' E 121°45'0 0.0
2019-Jun-09 05:25N 25°08' E 121°45'0 0.0
2019-Jun-09 04:55N 25°08' E 121°45'0 0.0
2019-Jun-09 03:38N 25°08' E 121°45'0 0.0
2019-Jun-09 02:50N 25°08' E 121°45'0 0.9
2019-Jun-09 02:27N 25°08' E 121°45'1 3.1
2019-Jun-09 02:00N 25°10' E 121°45'713.3
2019-Jun-09 01:30N 25°16' E 121°46'714.5
2019-Jun-09 00:59N 25°23' E 121°50'611.5
2019-Jun-09 00:26N 25°26' E 121°44'8 7.2
2019-Jun-08 23:21N 25°19' E 121°48'1 2.2
2019-Jun-08 22:56N 25°19' E 121°47'1 2.0
2019-Jun-08 22:27N 25°20' E 121°46'1 2.0
2019-Jun-08 21:54N 25°20' E 121°45'1 2.3
2019-Jun-08 21:29N 25°21' E 121°44'1 2.3
2019-Jun-08 20:58N 25°21' E 121°43'1 1.9
2019-Jun-08 20:17N 25°22' E 121°42'1 2.1
2019-Jun-08 19:56N 25°22' E 121°41'1 2.1
2019-Jun-08 19:30N 25°22' E 121°40'1 1.9
2019-Jun-08 18:59N 25°23' E 121°40'1 1.1
2019-Jun-08 18:28N 25°24' E 121°39'3 6.1
2019-Jun-08 18:00N 25°24' E 121°36'340.2 240 / 61002.310.8 26.024.6
2019-Jun-08 17:55N 25°24' E 121°39'0 0.8
2019-Jun-08 17:29N 25°24' E 121°40'1 1.2
2019-Jun-08 16:59N 25°24' E 121°40'1 1.7
2019-Jun-08 16:29N 25°23' E 121°41'1 1.6
2019-Jun-08 16:00N 25°23' E 121°42'1 1.9
2019-Jun-08 15:27N 25°23' E 121°43'1 1.9
2019-Jun-08 14:51N 25°23' E 121°44'1 1.8
2019-Jun-08 14:19N 25°23' E 121°45'0 1.5
2019-Jun-08 14:01N 25°23' E 121°46'1 1.1
2019-Jun-08 13:19N 25°23' E 121°47'0 0.8
2019-Jun-08 12:55N 25°24' E 121°47'0 1.0
2019-Jun-08 12:27N 25°24' E 121°47'1 1.5
2019-Jun-08 11:49N 25°25' E 121°47'3 6.9
2019-Jun-08 11:20N 25°22' E 121°49'2 5.5
2019-Jun-08 10:56N 25°21' E 121°51'1 1.9
2019-Jun-08 10:27N 25°22' E 121°50'1 2.8
2019-Jun-08 09:56N 25°23' E 121°49'2 3.8
2019-Jun-08 09:26N 25°24' E 121°47'3 4.6
2019-Jun-08 08:45N 25°21' E 121°49'3 8.8
2019-Jun-08 08:27N 25°19' E 121°51'710.1
2019-Jun-08 07:46N 25°17' E 121°58'3 9.5
2019-Jun-08 07:29N 25°15' E 122°00'5 9.4
2019-Jun-08 06:57N 25°10' E 122°03'3210.9
2019-Jun-08 04:03N 24°49' E 122°28'110.2
2019-Jun-08 03:54N 24°48' E 122°30'510.3
2019-Jun-08 03:28N 24°45' E 122°33'4 7.9
2019-Jun-08 03:00N 24°42' E 122°36'8 1.1 180 / 161006.110.8 30.027.4
2019-Jun-07 20:06N 24°37' E 122°43'1 8.9
2019-Jun-07 20:00N 24°38' E 122°42'611.1
2019-Jun-07 19:27N 24°42' E 122°37'510.9
2019-Jun-07 18:57N 24°45' E 122°32'510.9
2019-Jun-07 18:28N 24°49' E 122°28'3 7.2
2019-Jun-07 18:00N 24°48' E 122°24'4138.9 190 / 191006.110.8 28.026.7
2019-Jun-07 17:58N 24°52' E 122°23'611.1
2019-Jun-07 17:23N 24°56' E 122°18'1410.7
2019-Jun-07 16:07N 25°07' E 122°09'210.2
2019-Jun-07 15:57N 25°08' E 122°07'610.7
2019-Jun-07 15:26N 25°09' E 122°01'4 9.8
2019-Jun-07 15:00N 25°10' E 121°57'510.9
2019-Jun-07 14:30N 25°11' E 121°51'5 9.7
2019-Jun-07 13:59N 25°11' E 121°45'3 6.3
2019-Jun-07 13:29N 25°08' E 121°45'0 0.0
2019-Jun-07 12:55N 25°08' E 121°45'0 0.0
2019-Jun-07 12:30N 25°08' E 121°45'3 6.0
2019-Jun-07 12:00N 25°06' E 121°42'394.0 170 / 61007.510.8 26.024.6
2019-Jun-07 11:58N 25°08' E 121°45'0 0.0
2019-Jun-07 11:30N 25°08' E 121°45'0 0.0
2019-Jun-07 10:46N 25°08' E 121°45'0 0.0
2019-Jun-07 10:19N 25°08' E 121°45'0 0.0
2019-Jun-07 09:54N 25°08' E 121°45'0 0.0
2019-Jun-07 09:30N 25°08' E 121°45'0 0.0
2019-Jun-07 08:54N 25°08' E 121°45'0 0.0
2019-Jun-07 08:24N 25°08' E 121°45'0 0.0
2019-Jun-07 07:57N 25°08' E 121°45'0 0.6
2019-Jun-07 07:18N 25°08' E 121°45'1 3.7
2019-Jun-07 06:56N 25°10' E 121°45'712.1
2019-Jun-07 06:22N 25°16' E 121°48'614.8
2019-Jun-07 05:57N 25°19' E 121°54'612.2
2019-Jun-07 05:27N 25°25' E 121°52'5 7.0
2019-Jun-07 04:46N 25°20' E 121°52'0 1.6
2019-Jun-07 04:30N 25°20' E 121°52'1 1.9
2019-Jun-07 03:59N 25°19' E 121°53'1 2.0
2019-Jun-07 03:28N 25°19' E 121°54'714.4
2019-Jun-07 03:00N 25°12' E 121°54'6128.9 090 / 101008.110.8 30.027.4
2019-Jun-07 02:57N 25°18' E 121°55'1 2.0
2019-Jun-07 02:29N 25°18' E 121°56'2 1.9
2019-Jun-07 01:33N 25°17' E 121°58'0 2.0
2019-Jun-07 01:23N 25°17' E 121°58'1 1.2
2019-Jun-07 00:37N 25°17' E 121°59'0 1.3
2019-Jun-07 00:26N 25°17' E 121°59'3 7.0
2019-Jun-07 00:00N 25°15' E 122°02'611.6
2019-Jun-06 23:27N 25°11' E 122°08'510.6
2019-Jun-06 23:00N 25°10' E 122°12'48 9.6
2019-Jun-06 18:00N 24°48' E 123°00'   180 / 251008.110.8 29.026.3

Dump ship's entire track history